Aérodrome :







RETROUVEZ-NOUS SUR...

 
LOGIN :

S'inscrire | Disclaimer

   EN    FR    IT 

 









Légende :    VFR   VFR Marginal   IFR   IFR Intensif   IFR Très Intensif
Visi : 
Plafond : 
>= 8 km
>= 3000ft
5 à 8 km
1000 à 3000 ft
1500m à 5 km
500 à 1000 ft
800 à 1500m
200 à 500 ft
< 800m
< 200 ft
Symboles :   Orages  Brouillard  Fortes neiges  Fortes précipitations  Vent > 20 kt






- Altitude de l'aérodrome : 477 ft
- Code IATA : YHZ


CYHZ - Halifax Stanfield Int.

DERNIER METAR :
  • 172031Z 33020G27KT 1SM R14/6000FT/D -SHSN BLSN VV006 M13/M15 A3000 RMK BLSN8 PRESRR SLP170

METARs EXPIRÉS :
  • 172026Z 34020G31KT 4SM -SHSN BLSN BKN032 M14/M16 A2999 RMK SC7 CU EMBD SLP167
  • 172000Z 35026G41KT 15SM -SHSN DRSN BKN032 M13/M18 A2997 RMK SC7 CU EMBD VIS LWR W-SW SLP160
  • 171911Z 33031G43KT 15SM -SHSN DRSN FEW007 BKN034 M13/M16 A2993 RMK SF1SC7 SF TR CU EMBD SLP147
  • 171900Z 34034G42KT 1SM R14/P6000FT/N -SHSN BLSN BKN030 M12/M16 A2992 RMK SC7 CU EMBD SLP143
  • 171835Z 35030G43KT 4SM -SHSN BLSN BKN036 M12/M16 A2991 RMK SC7 CU EMBD SLP138
  • 171820Z 34028G41KT 1SM R14/3000VP6000FT/U -SHSN BLSN BKN028 M12/M15 A2990 RMK SC7 CU EMBD SLP136
  • 171800Z 33024G44KT 1/2SM R14/5500VP6000FT/D -SHSN DRSN BKN030 M12/M14 A2989 RMK SC7 CU EMBD, PRESRR SLP134

TAF TAF CYHZ
Valide du 17 à 21h jusqu'au 18 à 18h UTC


172038Z 1721/1818 34025G38KT 1SM -SN BLSN VV006
TEMPO 1721/1722 6SM -SN FEW006 BKN025
FM172200 33020G38KT P6SM SCT030
FM180400 33018G28KT P6SM SKC
BECMG 1807/1809 32015G25KT
BECMG 1816/1818 32012G22KT RMK NXT FCST BY 180000Z



MET'MAP, la Météo Aéronautique d'un coup d'oeil ! - Copyright ORBIFLY Décembre 2007 - Disclaimer

ORBIFLY MET'MAP TEAM :

Programmation & Développement : Alexandra Zaïnal
Sur une idée originale de : Baudouin d'Aumeries
Assistance à la programmation : Marc-Olivier Méhu
Soutien technique & logistique : Manuel Goepfert

Contact : metmap@orbifly.com




SOURCES & CREDITS :

   NOAA